createdAt,value
2019-05-09T00:01:23.741Z,9.40
2019-05-09T00:03:53.822Z,9.40
2019-05-09T00:06:23.889Z,9.50
2019-05-09T00:08:53.220Z,9.40
2019-05-09T00:11:24.415Z,9.50
2019-05-09T00:13:53.813Z,9.30
2019-05-09T00:16:23.480Z,9.20
2019-05-09T00:18:54.068Z,9.20
2019-05-09T00:21:29.847Z,9.20
2019-05-09T00:23:58.367Z,9.20
2019-05-09T00:26:26.807Z,9.20
2019-05-09T00:28:56.933Z,9.30
2019-05-09T00:31:43.776Z,9.10
2019-05-09T00:34:28.890Z,8.90
2019-05-09T00:36:57.371Z,9.10
2019-05-09T00:39:25.848Z,9.00
2019-05-09T00:41:54.412Z,9.00
2019-05-09T00:44:24.552Z,9.00
2019-05-09T00:47:00.691Z,9.00
2019-05-09T00:49:30.214Z,9.10
2019-05-09T00:51:58.718Z,9.00
2019-05-09T00:54:27.188Z,8.90
2019-05-09T00:56:55.723Z,9.00
2019-05-09T00:59:24.261Z,9.10
2019-05-09T01:01:54.322Z,8.90
2019-05-09T01:04:24.120Z,9.00
2019-05-09T01:06:54.021Z,9.20
2019-05-09T01:09:24.179Z,9.20
2019-05-09T01:11:54.543Z,9.00
2019-05-09T01:14:23.610Z,9.00
2019-05-09T01:16:53.858Z,9.00
2019-05-09T01:19:23.285Z,9.00
2019-05-09T01:21:54.059Z,9.00
2019-05-09T01:24:23.290Z,8.90
2019-05-09T01:26:53.998Z,8.90
2019-05-09T01:29:23.091Z,8.90
2019-05-09T01:31:54.150Z,8.90
2019-05-09T01:34:24.588Z,9.00
2019-05-09T01:37:06.934Z,8.90
2019-05-09T01:39:36.979Z,9.00
2019-05-09T01:42:06.241Z,8.80
2019-05-09T01:44:34.930Z,8.70
2019-05-09T01:47:03.979Z,8.60
2019-05-09T01:49:34.231Z,8.60
2019-05-09T01:52:03.527Z,8.60
2019-05-09T01:54:34.339Z,8.40
2019-05-09T01:57:03.502Z,8.40
2019-05-09T01:59:33.980Z,8.40
2019-05-09T02:02:08.310Z,8.40
2019-05-09T02:04:33.440Z,8.50
2019-05-09T02:07:04.440Z,8.60
2019-05-09T02:09:34.223Z,8.60
2019-05-09T02:12:04.050Z,8.60
2019-05-09T02:14:34.661Z,8.60
2019-05-09T02:17:10.697Z,8.60
2019-05-09T02:19:40.839Z,8.70
2019-05-09T02:22:26.948Z,8.70
2019-05-09T02:24:55.465Z,8.70
2019-05-09T02:27:23.935Z,8.70
2019-05-09T02:29:54.359Z,8.70
2019-05-09T02:32:23.980Z,8.70
2019-05-09T02:34:54.751Z,8.70
2019-05-09T02:37:22.943Z,8.60
2019-05-09T02:39:51.449Z,8.60
2019-05-09T02:42:19.986Z,8.60
2019-05-09T02:44:49.390Z,8.60
2019-05-09T02:47:23.753Z,8.60
2019-05-09T02:49:52.221Z,8.60
2019-05-09T02:52:20.796Z,8.60
2019-05-09T02:54:50.247Z,8.60
2019-05-09T02:57:21.725Z,8.60
2019-05-09T02:59:54.873Z,8.70
2019-05-09T03:02:28.975Z,8.70
2019-05-09T03:05:19.458Z,8.60
2019-05-09T03:07:51.914Z,8.70
2019-05-09T03:10:21.590Z,8.70
2019-05-09T03:12:50.774Z,8.70
2019-05-09T03:15:20.087Z,8.80
2019-05-09T03:17:52.892Z,8.80
2019-05-09T03:20:31.997Z,8.80
2019-05-09T03:23:03.071Z,8.80
2019-05-09T03:25:32.719Z,8.70
2019-05-09T03:28:02.867Z,8.60
2019-05-09T03:30:32.965Z,8.70
2019-05-09T03:33:01.479Z,8.70
2019-05-09T03:35:30.020Z,8.70
2019-05-09T03:38:08.128Z,8.60
2019-05-09T03:40:37.927Z,8.50
2019-05-09T03:43:08.024Z,8.40
2019-05-09T03:45:42.320Z,8.30
2019-05-09T03:48:12.416Z,8.50
2019-05-09T03:50:40.861Z,8.50
2019-05-09T03:53:09.334Z,8.40
2019-05-09T03:55:38.440Z,8.30
2019-05-09T03:58:11.550Z,8.30
2019-05-09T04:00:40.037Z,8.30
2019-05-09T04:03:08.541Z,8.30
2019-05-09T04:05:37.685Z,8.20
2019-05-09T04:08:18.612Z,8.20
2019-05-09T04:10:50.203Z,8.10
2019-05-09T04:13:21.674Z,8.20
2019-05-09T04:15:50.199Z,8.20
2019-05-09T04:18:18.731Z,8.20
2019-05-09T04:20:48.279Z,8.10
2019-05-09T04:23:18.622Z,8.10
2019-05-09T04:25:54.832Z,8.20
2019-05-09T04:28:23.315Z,8.20
2019-05-09T04:30:51.765Z,8.20
2019-05-09T04:33:20.235Z,8.10
2019-05-09T04:35:48.682Z,8.00
2019-05-09T04:38:17.940Z,8.00
2019-05-09T04:40:48.797Z,8.00
2019-05-09T04:43:26.706Z,7.90
2019-05-09T04:45:54.919Z,7.90
2019-05-09T04:48:31.323Z,8.00
2019-05-09T04:51:07.594Z,8.00
2019-05-09T04:53:40.155Z,8.00
2019-05-09T04:56:13.092Z,7.90
2019-05-09T04:58:43.132Z,8.00
2019-05-09T05:01:14.768Z,8.00
2019-05-09T05:03:48.032Z,7.80
2019-05-09T05:06:20.640Z,7.70
2019-05-09T05:08:48.279Z,7.70
2019-05-09T05:11:17.863Z,7.70
2019-05-09T05:13:48.179Z,7.70
2019-05-09T05:16:18.432Z,7.70
2019-05-09T05:18:47.789Z,7.70
2019-05-09T05:21:20.913Z,7.70
2019-05-09T05:23:51.025Z,7.90
2019-05-09T05:26:21.195Z,7.90
2019-05-09T05:28:51.445Z,8.00
2019-05-09T05:31:19.919Z,8.10
2019-05-09T05:33:58.969Z,8.30
2019-05-09T05:36:27.967Z,8.50
2019-05-09T05:41:44.503Z,8.70
2019-05-09T05:44:28.382Z,8.70
2019-05-09T05:47:12.522Z,8.80
2019-05-09T05:49:42.521Z,9.00
2019-05-09T05:52:10.989Z,9.20
2019-05-09T05:54:39.542Z,9.30
2019-05-09T05:57:09.472Z,9.60
2019-05-09T05:59:40.926Z,9.80
2019-05-09T06:02:13.387Z,10.00
2019-05-09T06:04:41.943Z,10.10
2019-05-09T06:07:10.395Z,10.10
2019-05-09T06:09:38.865Z,10.10
2019-05-09T06:12:08.306Z,10.20
2019-05-09T06:14:37.868Z,10.40
2019-05-09T06:17:07.842Z,10.30
2019-05-09T06:19:37.932Z,10.40
2019-05-09T06:22:08.241Z,10.50
2019-05-09T06:24:38.763Z,10.60
2019-05-09T06:27:10.164Z,10.70
2019-05-09T06:29:38.570Z,10.70
2019-05-09T06:32:08.019Z,10.80
2019-05-09T06:34:41.289Z,10.80
2019-05-09T06:37:09.003Z,10.90
2019-05-09T06:39:38.613Z,10.90
2019-05-09T06:42:09.000Z,10.90
2019-05-09T06:44:55.214Z,10.90
2019-05-09T06:47:27.641Z,11.10
2019-05-09T06:49:57.505Z,11.20
2019-05-09T06:52:28.046Z,11.10
2019-05-09T06:55:11.435Z,11.30
2019-05-09T06:57:42.833Z,11.40
2019-05-09T07:00:12.826Z,11.30
2019-05-09T07:02:42.920Z,11.20
2019-05-09T07:05:35.500Z,11.20
2019-05-09T07:08:07.982Z,11.30
2019-05-09T07:10:37.691Z,11.50
2019-05-09T07:13:07.936Z,11.50
2019-05-09T07:15:37.649Z,11.40
2019-05-09T07:18:08.098Z,11.30
2019-05-09T07:20:37.875Z,11.40
2019-05-09T07:23:09.038Z,11.40
2019-05-09T07:25:44.284Z,11.60
2019-05-09T07:28:12.796Z,11.80
2019-05-09T07:30:51.817Z,11.80
2019-05-09T07:33:24.719Z,11.70
2019-05-09T07:35:53.168Z,11.70
2019-05-09T07:38:31.715Z,11.60
2019-05-09T07:41:01.069Z,11.70
2019-05-09T07:43:29.828Z,11.70
2019-05-09T07:46:08.532Z,11.80
2019-05-09T07:48:38.270Z,11.90
2019-05-09T07:51:07.766Z,12.00
2019-05-09T07:53:38.061Z,12.10
2019-05-09T07:56:07.992Z,12.10
2019-05-09T07:58:37.753Z,12.20
2019-05-09T08:01:08.472Z,12.20
2019-05-09T08:03:38.430Z,12.20
2019-05-09T08:06:08.760Z,12.40
2019-05-09T08:08:38.489Z,12.40
2019-05-09T08:11:08.833Z,12.40
2019-05-09T08:13:39.255Z,12.50
2019-05-09T08:16:13.992Z,12.30
2019-05-09T08:18:38.383Z,12.50
2019-05-09T08:21:08.518Z,12.70
2019-05-09T08:23:37.976Z,12.80
2019-05-09T08:26:08.746Z,12.90
2019-05-09T08:28:38.882Z,13.00
2019-05-09T08:31:08.281Z,13.20
2019-05-09T08:33:38.028Z,13.20
2019-05-09T08:36:08.799Z,13.50
2019-05-09T08:38:38.943Z,13.50
2019-05-09T08:41:09.546Z,13.80
2019-05-09T08:43:39.752Z,14.00
2019-05-09T08:46:09.692Z,14.10
2019-05-09T08:48:38.197Z,13.90
2019-05-09T08:51:08.980Z,14.00
2019-05-09T08:53:38.081Z,14.00
2019-05-09T08:56:09.028Z,14.10
2019-05-09T08:58:38.190Z,14.40
2019-05-09T09:01:09.584Z,14.60
2019-05-09T09:03:37.841Z,14.60
2019-05-09T09:06:08.362Z,14.50
2019-05-09T09:08:38.033Z,14.40
2019-05-09T09:11:08.639Z,14.50
2019-05-09T09:13:37.860Z,14.30
2019-05-09T09:16:18.059Z,14.20
2019-05-09T09:18:38.798Z,14.30
2019-05-09T09:21:08.105Z,14.50
2019-05-09T09:23:44.098Z,14.70
2019-05-09T09:26:08.072Z,14.80
2019-05-09T09:28:38.000Z,15.30
2019-05-09T09:31:08.232Z,15.60
2019-05-09T09:33:37.651Z,15.60
2019-05-09T09:36:08.655Z,15.40
2019-05-09T09:38:37.540Z,15.30
2019-05-09T09:41:07.860Z,15.30
2019-05-09T09:43:38.370Z,15.30
2019-05-09T09:46:14.061Z,15.30
2019-05-09T09:48:38.865Z,15.30
2019-05-09T09:51:08.172Z,15.40
2019-05-09T09:53:38.476Z,15.60
2019-05-09T09:56:08.727Z,15.60
2019-05-09T09:58:37.969Z,15.80
2019-05-09T10:01:28.459Z,15.50
2019-05-09T10:04:07.746Z,15.40
2019-05-09T10:06:28.531Z,15.60
2019-05-09T10:08:57.982Z,15.50
2019-05-09T10:11:28.611Z,15.40
2019-05-09T10:13:58.454Z,16.10
2019-05-09T10:16:32.694Z,16.10
2019-05-09T10:19:03.085Z,16.10
2019-05-09T10:21:38.097Z,16.30
2019-05-09T10:24:07.972Z,16.40
2019-05-09T10:26:39.024Z,16.20
2019-05-09T10:29:07.666Z,16.10
2019-05-09T10:31:39.045Z,16.10
2019-05-09T10:34:06.289Z,16.40
2019-05-09T10:36:34.764Z,16.70
2019-05-09T10:39:05.061Z,16.90
2019-05-09T10:41:33.536Z,17.20
2019-05-09T10:44:03.634Z,17.70
2019-05-09T10:46:52.125Z,17.80
2019-05-09T10:49:08.446Z,17.40
2019-05-09T10:51:37.083Z,17.10
2019-05-09T10:54:07.889Z,16.70
2019-05-09T10:56:38.172Z,16.60
2019-05-09T10:59:07.797Z,16.10
2019-05-09T11:01:38.156Z,15.80
2019-05-09T11:04:08.212Z,15.70
2019-05-09T11:06:38.257Z,15.70
2019-05-09T11:09:08.994Z,15.50
2019-05-09T11:11:37.698Z,15.20
2019-05-09T11:14:08.310Z,14.90
2019-05-09T11:16:44.949Z,14.70
2019-05-09T11:19:07.981Z,14.70
2019-05-09T11:21:39.177Z,14.70
2019-05-09T11:24:08.421Z,14.60
2019-05-09T11:26:39.587Z,14.80
2019-05-09T11:29:08.025Z,14.70
2019-05-09T11:31:38.500Z,14.30
2019-05-09T11:34:08.851Z,13.80
2019-05-09T11:36:38.084Z,13.80
2019-05-09T11:39:10.786Z,14.10
2019-05-09T11:41:38.685Z,14.00
2019-05-09T11:44:08.488Z,13.90
2019-05-09T11:46:38.266Z,13.90
2019-05-09T11:49:08.274Z,13.80
2019-05-09T11:51:37.236Z,14.00
2019-05-09T11:54:05.744Z,14.30
2019-05-09T11:56:34.265Z,14.70
2019-05-09T11:59:02.747Z,15.40
2019-05-09T12:01:31.231Z,16.50
2019-05-09T12:03:59.758Z,18.10
2019-05-09T12:06:29.249Z,18.90
2019-05-09T12:08:58.868Z,19.70
2019-05-09T12:11:27.754Z,19.50
2019-05-09T12:13:58.163Z,21.30
2019-05-09T12:16:27.926Z,21.40
2019-05-09T12:18:58.460Z,22.40
2019-05-09T12:21:28.184Z,22.20
2019-05-09T12:23:58.113Z,20.00
2019-05-09T12:26:29.293Z,20.20
2019-05-09T12:28:57.828Z,20.10
2019-05-09T12:31:28.774Z,20.60
2019-05-09T12:33:59.139Z,20.80
2019-05-09T12:36:28.630Z,22.80
2019-05-09T12:38:59.250Z,23.90
2019-05-09T12:41:31.586Z,22.90
2019-05-09T12:43:57.903Z,23.30
2019-05-09T12:46:28.412Z,21.90
2019-05-09T12:48:59.143Z,22.50
2019-05-09T12:51:28.243Z,22.20
2019-05-09T12:53:57.892Z,21.20
2019-05-09T12:56:28.470Z,20.80
2019-05-09T12:58:57.830Z,21.10
2019-05-09T13:01:26.676Z,20.80
2019-05-09T13:03:55.126Z,19.90
2019-05-09T13:06:23.641Z,20.10
2019-05-09T13:08:52.196Z,19.60
2019-05-09T13:11:20.700Z,19.80
2019-05-09T13:13:49.212Z,19.10
2019-05-09T13:16:19.365Z,21.00
2019-05-09T13:19:04.416Z,22.20
2019-05-09T13:21:33.408Z,22.00
2019-05-09T13:24:02.312Z,22.60
2019-05-09T13:26:30.897Z,22.10
2019-05-09T13:28:59.415Z,22.00
2019-05-09T13:31:29.426Z,22.60
2019-05-09T13:33:58.532Z,24.20
2019-05-09T13:36:28.361Z,22.70
2019-05-09T13:39:04.366Z,21.40
2019-05-09T13:41:27.798Z,22.00
2019-05-09T13:43:59.306Z,23.20
2019-05-09T13:46:28.342Z,22.60
2019-05-09T13:49:09.958Z,22.50
2019-05-09T13:51:26.793Z,24.00
2019-05-09T13:53:55.291Z,23.30
2019-05-09T13:56:23.912Z,21.80
2019-05-09T13:58:52.407Z,22.60
2019-05-09T14:01:20.964Z,22.80
2019-05-09T14:03:49.552Z,22.50
2019-05-09T14:06:18.003Z,23.80
2019-05-09T14:08:48.951Z,24.30
2019-05-09T14:11:19.073Z,23.80
2019-05-09T14:13:48.763Z,22.40
2019-05-09T14:16:38.745Z,21.60
2019-05-09T14:19:26.038Z,20.80
2019-05-09T14:21:36.842Z,19.80
2019-05-09T14:24:12.256Z,19.70
2019-05-09T14:26:35.508Z,19.50
2019-05-09T14:29:04.049Z,19.40
2019-05-09T14:31:32.775Z,19.10
2019-05-09T14:34:01.314Z,18.80
2019-05-09T14:36:32.850Z,18.60
2019-05-09T14:39:01.480Z,19.10
2019-05-09T14:41:30.012Z,19.70
2019-05-09T14:43:59.879Z,19.30
2019-05-09T14:46:32.363Z,18.80
2019-05-09T14:49:00.844Z,18.30
2019-05-09T14:51:29.351Z,17.00
2019-05-09T14:53:59.404Z,14.50
2019-05-09T14:56:28.239Z,14.70
2019-05-09T14:58:58.160Z,15.20
2019-05-09T15:01:28.692Z,15.60
2019-05-09T15:03:58.632Z,17.00
2019-05-09T15:06:28.276Z,18.30
2019-05-09T15:08:58.216Z,18.00
2019-05-09T15:11:28.145Z,17.50
2019-05-09T15:13:58.465Z,17.60
2019-05-09T15:16:28.227Z,18.50
2019-05-09T15:18:58.417Z,18.70
2019-05-09T15:21:27.269Z,18.90
2019-05-09T15:23:55.833Z,18.60
2019-05-09T15:26:24.368Z,18.40
2019-05-09T15:28:52.821Z,18.70
2019-05-09T15:31:21.276Z,19.40
2019-05-09T15:33:49.732Z,20.60
2019-05-09T15:36:19.190Z,20.10
2019-05-09T15:38:48.756Z,20.30
2019-05-09T15:41:18.376Z,20.80
2019-05-09T15:43:48.586Z,20.60
2019-05-09T15:46:21.935Z,20.80
2019-05-09T15:48:50.399Z,21.50
2019-05-09T15:51:19.017Z,22.20
2019-05-09T15:53:48.695Z,23.20
2019-05-09T15:56:18.835Z,22.90
2019-05-09T15:58:48.967Z,22.10
2019-05-09T16:01:18.454Z,21.10
2019-05-09T16:03:48.542Z,20.70
2019-05-09T16:06:19.112Z,21.40
2019-05-09T16:08:50.935Z,22.10
2019-05-09T16:11:19.446Z,22.60
2019-05-09T16:13:48.156Z,22.50
2019-05-09T16:16:17.533Z,22.20
2019-05-09T16:18:48.544Z,22.10
2019-05-09T16:21:16.632Z,20.70
2019-05-09T16:23:45.181Z,20.40
2019-05-09T16:26:14.846Z,19.90
2019-05-09T16:28:43.389Z,19.50
2019-05-09T16:31:11.853Z,19.60
2019-05-09T16:33:40.309Z,19.10
2019-05-09T16:36:08.769Z,18.90
2019-05-09T16:38:43.365Z,18.60
2019-05-09T16:41:07.808Z,18.70
2019-05-09T16:43:38.168Z,18.60
2019-05-09T16:46:07.607Z,18.80
2019-05-09T16:48:36.429Z,19.70
2019-05-09T16:51:04.969Z,19.80
2019-05-09T16:53:33.479Z,19.20
2019-05-09T16:56:02.008Z,18.50
2019-05-09T16:58:30.471Z,17.80
2019-05-09T17:00:58.915Z,17.70
2019-05-09T17:03:28.395Z,17.80
2019-05-09T17:05:58.241Z,17.70
2019-05-09T17:08:28.279Z,17.60
2019-05-09T17:10:58.651Z,17.20
2019-05-09T17:13:28.896Z,17.20
2019-05-09T17:15:57.467Z,17.10
2019-05-09T17:18:28.384Z,17.10
2019-05-09T17:21:18.228Z,17.90
2019-05-09T17:23:39.970Z,17.60
2019-05-09T17:26:08.476Z,17.10
2019-05-09T17:28:37.627Z,17.10
2019-05-09T17:31:08.621Z,17.30
2019-05-09T17:33:37.923Z,17.20
2019-05-09T17:36:06.641Z,16.80
2019-05-09T17:38:35.121Z,16.60
2019-05-09T17:41:03.576Z,16.40
2019-05-09T17:43:32.056Z,16.60
2019-05-09T17:46:00.568Z,16.30
2019-05-09T17:48:29.122Z,16.30
2019-05-09T17:50:58.014Z,16.40
2019-05-09T17:53:29.292Z,16.50
2019-05-09T17:55:58.594Z,16.40
2019-05-09T17:58:32.829Z,16.10
2019-05-09T18:00:58.730Z,15.90
2019-05-09T18:03:29.150Z,15.60
2019-05-09T18:05:57.816Z,15.40
2019-05-09T18:08:28.401Z,15.40
2019-05-09T18:10:58.369Z,15.40
2019-05-09T18:13:29.680Z,15.50
2019-05-09T18:15:57.321Z,15.40
2019-05-09T18:18:28.181Z,15.40
2019-05-09T18:20:58.026Z,15.30
2019-05-09T18:23:28.175Z,15.30
2019-05-09T18:25:58.430Z,15.50
2019-05-09T18:28:26.502Z,15.50
2019-05-09T18:30:54.947Z,15.50
2019-05-09T18:33:25.078Z,14.90
2019-05-09T18:35:53.532Z,14.90
2019-05-09T18:38:31.305Z,14.90
2019-05-09T18:40:59.796Z,15.10
2019-05-09T18:43:28.244Z,15.20
2019-05-09T18:45:57.723Z,15.10
2019-05-09T18:48:27.816Z,15.00
2019-05-09T18:50:56.740Z,15.10
2019-05-09T18:53:25.204Z,14.80
2019-05-09T18:55:53.651Z,15.00
2019-05-09T18:58:22.100Z,14.90
2019-05-09T19:00:51.169Z,14.70
2019-05-09T19:03:19.768Z,14.60
2019-05-09T19:05:48.339Z,14.80
2019-05-09T19:08:16.864Z,14.80
2019-05-09T19:10:45.383Z,14.90
2019-05-09T19:13:14.012Z,15.00
2019-05-09T19:15:46.882Z,14.80
2019-05-09T19:18:16.984Z,14.50
2019-05-09T19:20:47.119Z,14.50
2019-05-09T19:23:15.608Z,14.40
2019-05-09T19:25:44.147Z,14.20
2019-05-09T19:28:12.588Z,14.20
2019-05-09T19:30:41.070Z,14.20
2019-05-09T19:33:09.577Z,14.40
2019-05-09T19:35:38.115Z,14.30
2019-05-09T19:38:06.641Z,14.50
2019-05-09T19:40:35.172Z,14.30
2019-05-09T19:43:03.649Z,14.10
2019-05-09T19:45:32.168Z,14.00
2019-05-09T19:48:00.721Z,14.20
2019-05-09T19:50:29.192Z,14.30
2019-05-09T19:52:57.645Z,13.90
2019-05-09T19:55:26.297Z,14.10
2019-05-09T19:57:54.789Z,14.20
2019-05-09T20:00:24.089Z,14.10
2019-05-09T20:02:52.540Z,13.90
2019-05-09T20:05:21.060Z,14.10
2019-05-09T20:07:49.516Z,14.00
2019-05-09T20:10:19.688Z,14.10
2019-05-09T20:12:49.817Z,13.90
2019-05-09T20:15:19.973Z,13.70
2019-05-09T20:17:48.441Z,13.70
2019-05-09T20:20:16.956Z,13.90
2019-05-09T20:22:52.969Z,13.90
2019-05-09T20:25:15.683Z,13.50
2019-05-09T20:27:44.144Z,13.60
2019-05-09T20:30:13.083Z,13.60
2019-05-09T20:32:41.633Z,13.40
2019-05-09T20:35:10.497Z,13.20
2019-05-09T20:37:39.697Z,13.40
2019-05-09T20:40:08.753Z,13.30
2019-05-09T20:42:37.474Z,13.50
2019-05-09T20:45:07.957Z,13.40
2019-05-09T20:47:36.602Z,13.40
2019-05-09T20:50:08.645Z,13.40
2019-05-09T20:52:37.327Z,13.40
2019-05-09T20:55:06.829Z,13.50
2019-05-09T20:57:35.513Z,13.50
2019-05-09T21:00:06.406Z,13.40
2019-05-09T21:02:35.118Z,13.30
2019-05-09T21:05:05.027Z,13.40
2019-05-09T21:07:33.671Z,13.20
2019-05-09T21:10:02.313Z,13.20
2019-05-09T21:12:33.007Z,13.20
2019-05-09T21:15:01.717Z,13.20
2019-05-09T21:17:30.469Z,13.20
2019-05-09T21:19:59.146Z,13.20
2019-05-09T21:22:27.781Z,13.10
2019-05-09T21:24:56.446Z,13.00
2019-05-09T21:27:25.095Z,12.80
2019-05-09T21:29:53.803Z,13.00
2019-05-09T21:32:22.447Z,12.90
2019-05-09T21:34:50.969Z,12.70
2019-05-09T21:37:19.430Z,12.80
2019-05-09T21:39:47.887Z,12.80
2019-05-09T21:42:16.355Z,12.80
2019-05-09T21:44:44.801Z,13.00
2019-05-09T21:47:13.255Z,12.80
2019-05-09T21:49:41.773Z,12.60
2019-05-09T21:52:10.227Z,12.70
2019-05-09T21:54:38.683Z,12.80
2019-05-09T21:57:07.147Z,12.80
2019-05-09T21:59:35.697Z,13.00
2019-05-09T22:02:04.784Z,12.80
2019-05-09T22:04:33.233Z,12.60
2019-05-09T22:07:01.681Z,12.70
2019-05-09T22:09:30.164Z,12.70
2019-05-09T22:11:59.779Z,12.90
2019-05-09T22:14:28.225Z,12.40
2019-05-09T22:16:58.771Z,12.50
2019-05-09T22:19:27.231Z,12.40
2019-05-09T22:21:55.683Z,12.40
2019-05-09T22:24:24.233Z,12.50
2019-05-09T22:26:52.762Z,12.30
2019-05-09T22:29:21.281Z,12.30
2019-05-09T22:31:49.743Z,12.40
2019-05-09T22:34:18.257Z,12.30
2019-05-09T22:36:46.704Z,12.30
2019-05-09T22:39:15.180Z,12.30
2019-05-09T22:41:43.690Z,12.30
2019-05-09T22:44:12.152Z,12.20
2019-05-09T22:46:40.606Z,12.30
2019-05-09T22:49:09.160Z,12.20
2019-05-09T22:51:37.625Z,12.40
2019-05-09T22:54:12.815Z,12.30
2019-05-09T22:56:36.248Z,12.10
2019-05-09T22:59:04.772Z,12.10
2019-05-09T23:01:33.311Z,12.10
2019-05-09T23:04:01.751Z,12.10
2019-05-09T23:06:30.188Z,12.10
2019-05-09T23:08:58.657Z,12.20
2019-05-09T23:11:27.097Z,11.90
2019-05-09T23:13:55.616Z,11.90
2019-05-09T23:16:25.675Z,11.80
2019-05-09T23:18:54.859Z,11.80
2019-05-09T23:21:25.098Z,11.80
2019-05-09T23:24:04.460Z,11.80
2019-05-09T23:26:32.950Z,11.90
2019-05-09T23:29:01.476Z,11.90
2019-05-09T23:31:41.115Z,11.90
2019-05-09T23:34:09.736Z,12.00
2019-05-09T23:36:38.176Z,12.20
2019-05-09T23:39:08.445Z,12.00
2019-05-09T23:41:36.889Z,12.00
2019-05-09T23:44:05.431Z,12.00
2019-05-09T23:46:34.021Z,12.10
2019-05-09T23:49:02.470Z,12.00
2019-05-09T23:51:49.764Z,12.10
2019-05-09T23:54:47.253Z,12.00
2019-05-09T23:57:27.490Z,11.90
